Kezdőlap
METAR-TAF:

METAR-TAF

Repülőterek :

Albert Lea, Minnesota, Amerikai Egyesült Államok

földrajzi szélesség: 43-41N, földrajzi hosszúság: 093-22W, magasság: 383 m

Jelenlegi meteorológiai megfigyelések

A jelentés 25 perccel ezelõtt készült, 07:35 UTC
Északnyugati szél 6 kt
Hőmérséklet -7°C
Páratartalom 93%
Légköri nyomás 1017 hPa

METAR: KAEL 180735Z AUTO 31006KT M07/M08 A3004 RMK AO2 PWINO

Idő: 02:00 (08:00 UTC)


TAF: hiányzik

Meteorológiai megfigyelések és előrejelzések több, mint 4000 repülőtéren (METAR és TAF jelentéseket).

A térképen piros és sárga pontok jelzik az elérhető meteorológiai állomásokat.

Mozgassa az egeret a pont fölött, hogy megjelenjen az állomás neve.

Azután kattintson az időjárási megfigyelések és előrejelzések megtekintéséhez.

A térkép megváltoztatása: kattintson a fekete keresztel jelölt zöld gombra ráközelítéshez, a vonallal jelölt zöld gombra távolításhoz, vagy a zöld nyilakra a szomszédos térképek eléréséhez.


METAR-TAF: